sensor_id;sensor_type;location;lat;lon;timestamp;pressure;altitude;pressure_sealevel;temperature;humidity
33781;BME280;20097;50.832;19.100;2023-02-03T00:04:54;98826.22;;;0.29;100.00
33781;BME280;20097;50.832;19.100;2023-02-03T00:09:58;98824.75;;;0.25;100.00
33781;BME280;20097;50.832;19.100;2023-02-03T00:15:06;98824.41;;;0.31;100.00
33781;BME280;20097;50.832;19.100;2023-02-03T00:20:11;98823.88;;;0.26;100.00
33781;BME280;20097;50.832;19.100;2023-02-03T00:25:16;98832.47;;;0.25;100.00
33781;BME280;20097;50.832;19.100;2023-02-03T00:30:22;98836.25;;;0.19;100.00
33781;BME280;20097;50.832;19.100;2023-02-03T00:35:27;98853.00;;;0.25;100.00
33781;BME280;20097;50.832;19.100;2023-02-03T00:40:33;98856.41;;;0.25;100.00
33781;BME280;20097;50.832;19.100;2023-02-03T00:45:39;98847.25;;;0.21;100.00
33781;BME280;20097;50.832;19.100;2023-02-03T00:50:45;98839.72;;;0.18;100.00
33781;BME280;20097;50.832;19.100;2023-02-03T00:55:50;98832.03;;;0.18;100.00
33781;BME280;20097;50.832;19.100;2023-02-03T01:00:56;98831.25;;;0.03;100.00
33781;BME280;20097;50.832;19.100;2023-02-03T01:06:09;98829.69;;;0.01;100.00
33781;BME280;20097;50.832;19.100;2023-02-03T01:11:16;98827.03;;;0.03;100.00
33781;BME280;20097;50.832;19.100;2023-02-03T01:16:24;98820.41;;;0.13;100.00
33781;BME280;20097;50.832;19.100;2023-02-03T01:21:31;98821.63;;;0.07;100.00
33781;BME280;20097;50.832;19.100;2023-02-03T01:26:37;98823.97;;;0.10;100.00
33781;BME280;20097;50.832;19.100;2023-02-03T01:31:43;98820.38;;;0.00;100.00
33781;BME280;20097;50.832;19.100;2023-02-03T01:36:48;98821.72;;;0.06;100.00
33781;BME280;20097;50.832;19.100;2023-02-03T01:41:54;98815.56;;;0.08;100.00
33781;BME280;20097;50.832;19.100;2023-02-03T01:47:02;98819.47;;;0.14;100.00
33781;BME280;20097;50.832;19.100;2023-02-03T01:52:07;98805.13;;;0.11;100.00
33781;BME280;20097;50.832;19.100;2023-02-03T01:57:19;98805.97;;;-0.03;100.00
33781;BME280;20097;50.832;19.100;2023-02-03T02:02:27;98796.47;;;-0.15;100.00
33781;BME280;20097;50.832;19.100;2023-02-03T02:07:33;98792.66;;;-0.36;100.00
33781;BME280;20097;50.832;19.100;2023-02-03T02:12:40;98797.91;;;-0.51;100.00
33781;BME280;20097;50.832;19.100;2023-02-03T02:18:07;98807.78;;;-0.59;100.00
33781;BME280;20097;50.832;19.100;2023-02-03T02:24:04;98795.25;;;-0.78;100.00
33781;BME280;20097;50.832;19.100;2023-02-03T02:35:43;98752.06;;;-0.84;100.00
33781;BME280;20097;50.832;19.100;2023-02-03T02:40:53;98733.28;;;-0.84;100.00
33781;BME280;20097;50.832;19.100;2023-02-03T02:46:05;98726.72;;;-0.88;100.00
33781;BME280;20097;50.832;19.100;2023-02-03T02:51:14;98728.91;;;-0.96;100.00
33781;BME280;20097;50.832;19.100;2023-02-03T02:56:20;98735.94;;;-1.00;100.00
33781;BME280;20097;50.832;19.100;2023-02-03T03:01:27;98755.69;;;-1.16;100.00
33781;BME280;20097;50.832;19.100;2023-02-03T03:06:37;98764.09;;;-1.28;100.00
33781;BME280;20097;50.832;19.100;2023-02-03T03:11:48;98766.03;;;-1.17;100.00
33781;BME280;20097;50.832;19.100;2023-02-03T03:16:59;98765.22;;;-1.18;100.00
33781;BME280;20097;50.832;19.100;2023-02-03T03:22:10;98748.53;;;-1.25;100.00
33781;BME280;20097;50.832;19.100;2023-02-03T03:27:21;98746.72;;;-1.23;100.00
33781;BME280;20097;50.832;19.100;2023-02-03T03:32:26;98738.56;;;-1.29;100.00
33781;BME280;20097;50.832;19.100;2023-02-03T03:37:37;98726.31;;;-1.24;100.00
33781;BME280;20097;50.832;19.100;2023-02-03T03:42:50;98706.78;;;-1.25;100.00
33781;BME280;20097;50.832;19.100;2023-02-03T03:48:01;98703.75;;;-1.32;100.00
33781;BME280;20097;50.832;19.100;2023-02-03T03:53:09;98705.19;;;-1.28;100.00
33781;BME280;20097;50.832;19.100;2023-02-03T03:58:18;98717.63;;;-1.22;100.00
33781;BME280;20097;50.832;19.100;2023-02-03T04:03:27;98709.06;;;-1.21;100.00
33781;BME280;20097;50.832;19.100;2023-02-03T04:08:35;98717.63;;;-1.22;100.00
33781;BME280;20097;50.832;19.100;2023-02-03T04:13:41;98708.22;;;-1.21;100.00
33781;BME280;20097;50.832;19.100;2023-02-03T04:18:45;98701.47;;;-1.22;100.00
33781;BME280;20097;50.832;19.100;2023-02-03T04:23:51;98693.78;;;-1.22;100.00
33781;BME280;20097;50.832;19.100;2023-02-03T04:28:55;98686.28;;;-1.25;100.00
33781;BME280;20097;50.832;19.100;2023-02-03T04:34:00;98683.72;;;-1.25;100.00
33781;BME280;20097;50.832;19.100;2023-02-03T04:39:06;98679.78;;;-1.17;100.00
33781;BME280;20097;50.832;19.100;2023-02-03T04:44:11;98674.09;;;-1.22;100.00
33781;BME280;20097;50.832;19.100;2023-02-03T04:49:16;98665.44;;;-1.19;100.00
33781;BME280;20097;50.832;19.100;2023-02-03T04:54:22;98648.59;;;-1.23;100.00
33781;BME280;20097;50.832;19.100;2023-02-03T04:59:26;98641.44;;;-1.18;100.00
33781;BME280;20097;50.832;19.100;2023-02-03T05:09:37;98625.19;;;-1.17;100.00
33781;BME280;20097;50.832;19.100;2023-02-03T05:14:42;98616.47;;;-1.15;100.00
33781;BME280;20097;50.832;19.100;2023-02-03T05:19:46;98619.03;;;-1.15;100.00
33781;BME280;20097;50.832;19.100;2023-02-03T05:24:52;98614.19;;;-1.05;100.00
33781;BME280;20097;50.832;19.100;2023-02-03T05:29:56;98605.78;;;-1.07;100.00
33781;BME280;20097;50.832;19.100;2023-02-03T05:35:01;98578.31;;;-1.05;100.00
33781;BME280;20097;50.832;19.100;2023-02-03T05:40:09;98572.22;;;-1.03;100.00
33781;BME280;20097;50.832;19.100;2023-02-03T05:45:31;98568.28;;;-1.08;100.00
33781;BME280;20097;50.832;19.100;2023-02-03T05:50:36;98557.47;;;-1.13;100.00
33781;BME280;20097;50.832;19.100;2023-02-03T05:55:45;98551.38;;;-1.11;100.00
33781;BME280;20097;50.832;19.100;2023-02-03T06:00:51;98540.94;;;-1.08;100.00
33781;BME280;20097;50.832;19.100;2023-02-03T06:05:56;98541.56;;;-1.04;100.00
33781;BME280;20097;50.832;19.100;2023-02-03T06:11:02;98538.16;;;-1.05;100.00
33781;BME280;20097;50.832;19.100;2023-02-03T06:16:07;98530.28;;;-1.02;100.00
33781;BME280;20097;50.832;19.100;2023-02-03T06:21:12;98536.44;;;-1.04;100.00
33781;BME280;20097;50.832;19.100;2023-02-03T06:26:18;98534.59;;;-1.02;100.00
33781;BME280;20097;50.832;19.100;2023-02-03T06:31:23;98522.31;;;-0.97;100.00
33781;BME280;20097;50.832;19.100;2023-02-03T06:36:28;98511.06;;;-0.95;100.00
33781;BME280;20097;50.832;19.100;2023-02-03T06:41:34;98497.44;;;-0.95;100.00
33781;BME280;20097;50.832;19.100;2023-02-03T06:46:39;98480.44;;;-0.96;100.00
33781;BME280;20097;50.832;19.100;2023-02-03T06:51:44;98479.28;;;-0.92;100.00
33781;BME280;20097;50.832;19.100;2023-02-03T06:56:50;98474.22;;;-0.80;100.00
33781;BME280;20097;50.832;19.100;2023-02-03T07:01:54;98465.81;;;-0.82;100.00
33781;BME280;20097;50.832;19.100;2023-02-03T07:06:59;98466.97;;;-0.73;100.00
33781;BME280;20097;50.832;19.100;2023-02-03T07:12:05;98455.47;;;-0.68;100.00
33781;BME280;20097;50.832;19.100;2023-02-03T07:17:10;98444.13;;;-0.64;100.00
33781;BME280;20097;50.832;19.100;2023-02-03T07:22:14;98427.91;;;-0.64;100.00
33781;BME280;20097;50.832;19.100;2023-02-03T07:27:20;98412.84;;;-0.56;100.00
33781;BME280;20097;50.832;19.100;2023-02-03T07:32:25;98398.81;;;-0.51;100.00
33781;BME280;20097;50.832;19.100;2023-02-03T07:37:29;98396.75;;;-0.46;100.00
33781;BME280;20097;50.832;19.100;2023-02-03T07:42:37;98381.78;;;-0.39;100.00
33781;BME280;20097;50.832;19.100;2023-02-03T07:47:42;98377.84;;;-0.32;100.00
33781;BME280;20097;50.832;19.100;2023-02-03T07:52:49;98363.69;;;-0.25;100.00
33781;BME280;20097;50.832;19.100;2023-02-03T07:57:56;98354.25;;;-0.12;100.00
33781;BME280;20097;50.832;19.100;2023-02-03T08:03:04;98333.78;;;-0.01;100.00
33781;BME280;20097;50.832;19.100;2023-02-03T08:08:08;98320.13;;;-0.02;100.00
33781;BME280;20097;50.832;19.100;2023-02-03T08:13:14;98309.63;;;0.14;100.00
33781;BME280;20097;50.832;19.100;2023-02-03T08:18:19;98320.22;;;0.10;100.00
33781;BME280;20097;50.832;19.100;2023-02-03T08:23:23;98319.94;;;0.25;100.00
33781;BME280;20097;50.832;19.100;2023-02-03T08:28:29;98305.25;;;0.27;100.00
33781;BME280;20097;50.832;19.100;2023-02-03T08:33:33;98296.19;;;0.34;100.00
33781;BME280;20097;50.832;19.100;2023-02-03T08:38:38;98294.81;;;0.41;100.00
33781;BME280;20097;50.832;19.100;2023-02-03T08:43:45;98276.38;;;0.47;100.00
33781;BME280;20097;50.832;19.100;2023-02-03T08:48:49;98276.69;;;0.66;100.00
33781;BME280;20097;50.832;19.100;2023-02-03T08:53:55;98275.03;;;0.65;100.00
33781;BME280;20097;50.832;19.100;2023-02-03T08:59:01;98268.66;;;0.71;100.00
33781;BME280;20097;50.832;19.100;2023-02-03T09:04:05;98264.09;;;0.63;100.00
33781;BME280;20097;50.832;19.100;2023-02-03T09:09:10;98252.66;;;0.67;100.00
33781;BME280;20097;50.832;19.100;2023-02-03T09:14:16;98245.19;;;0.86;100.00
33781;BME280;20097;50.832;19.100;2023-02-03T09:19:20;98243.56;;;0.85;100.00
33781;BME280;20097;50.832;19.100;2023-02-03T09:24:24;98223.25;;;0.93;100.00
33781;BME280;20097;50.832;19.100;2023-02-03T09:29:30;98202.00;;;0.91;100.00
33781;BME280;20097;50.832;19.100;2023-02-03T09:34:35;98193.63;;;0.89;100.00
33781;BME280;20097;50.832;19.100;2023-02-03T09:39:39;98180.53;;;0.92;100.00
33781;BME280;20097;50.832;19.100;2023-02-03T09:44:50;98148.88;;;0.92;100.00
33781;BME280;20097;50.832;19.100;2023-02-03T09:50:00;98126.34;;;0.84;100.00
33781;BME280;20097;50.832;19.100;2023-02-03T09:55:19;98103.22;;;0.73;100.00
33781;BME280;20097;50.832;19.100;2023-02-03T10:00:31;98087.78;;;0.73;100.00
33781;BME280;20097;50.832;19.100;2023-02-03T10:06:17;98066.91;;;0.67;100.00
33781;BME280;20097;50.832;19.100;2023-02-03T10:11:37;98052.06;;;0.70;100.00
33781;BME280;20097;50.832;19.100;2023-02-03T10:16:58;98027.72;;;0.65;100.00
33781;BME280;20097;50.832;19.100;2023-02-03T10:22:07;98014.25;;;0.72;100.00
33781;BME280;20097;50.832;19.100;2023-02-03T10:27:19;97989.66;;;0.70;100.00
33781;BME280;20097;50.832;19.100;2023-02-03T10:32:27;97960.69;;;0.68;100.00
33781;BME280;20097;50.832;19.100;2023-02-03T10:37:37;97942.59;;;0.69;100.00
33781;BME280;20097;50.832;19.100;2023-02-03T10:42:46;97928.72;;;0.61;100.00
33781;BME280;20097;50.832;19.100;2023-02-03T10:48:15;97904.91;;;0.59;100.00
33781;BME280;20097;50.832;19.100;2023-02-03T10:53:25;97892.78;;;0.61;100.00
33781;BME280;20097;50.832;19.100;2023-02-03T10:58:31;97865.59;;;0.58;100.00
33781;BME280;20097;50.832;19.100;2023-02-03T11:03:41;97850.66;;;0.63;100.00
33781;BME280;20097;50.832;19.100;2023-02-03T11:08:48;97822.72;;;0.70;100.00
33781;BME280;20097;50.832;19.100;2023-02-03T11:13:55;97801.22;;;0.71;100.00
33781;BME280;20097;50.832;19.100;2023-02-03T11:19:17;97786.19;;;0.66;100.00
33781;BME280;20097;50.832;19.100;2023-02-03T11:24:25;97765.84;;;0.74;100.00
33781;BME280;20097;50.832;19.100;2023-02-03T11:29:32;97739.38;;;0.83;100.00
33781;BME280;20097;50.832;19.100;2023-02-03T11:34:39;97726.84;;;0.90;100.00
33781;BME280;20097;50.832;19.100;2023-02-03T11:39:48;97720.66;;;0.92;100.00
33781;BME280;20097;50.832;19.100;2023-02-03T11:45:13;97697.91;;;0.88;100.00
33781;BME280;20097;50.832;19.100;2023-02-03T11:50:28;97692.56;;;1.00;100.00
33781;BME280;20097;50.832;19.100;2023-02-03T11:55:56;97677.78;;;0.93;100.00
33781;BME280;20097;50.832;19.100;2023-02-03T12:01:08;97665.34;;;0.98;100.00
33781;BME280;20097;50.832;19.100;2023-02-03T12:06:41;97637.25;;;1.06;100.00
33781;BME280;20097;50.832;19.100;2023-02-03T12:12:13;97619.81;;;1.09;100.00
33781;BME280;20097;50.832;19.100;2023-02-03T12:17:47;97613.22;;;1.16;100.00
33781;BME280;20097;50.832;19.100;2023-02-03T12:23:08;97584.41;;;1.13;100.00
33781;BME280;20097;50.832;19.100;2023-02-03T12:28:29;97572.78;;;1.18;100.00
33781;BME280;20097;50.832;19.100;2023-02-03T12:33:41;97553.16;;;1.17;100.00
33781;BME280;20097;50.832;19.100;2023-02-03T12:38:53;97537.22;;;1.23;100.00
33781;BME280;20097;50.832;19.100;2023-02-03T12:44:04;97525.31;;;1.22;100.00
33781;BME280;20097;50.832;19.100;2023-02-03T12:49:25;97506.75;;;1.19;100.00
33781;BME280;20097;50.832;19.100;2023-02-03T12:54:42;97482.84;;;1.18;100.00
33781;BME280;20097;50.832;19.100;2023-02-03T13:00:14;97473.34;;;1.19;100.00
33781;BME280;20097;50.832;19.100;2023-02-03T13:05:27;97444.97;;;1.11;100.00
33781;BME280;20097;50.832;19.100;2023-02-03T13:10:39;97435.50;;;1.11;100.00
33781;BME280;20097;50.832;19.100;2023-02-03T13:15:48;97426.44;;;1.07;100.00
33781;BME280;20097;50.832;19.100;2023-02-03T13:20:56;97405.38;;;1.04;100.00
33781;BME280;20097;50.832;19.100;2023-02-03T13:32:18;97363.00;;;1.08;100.00
33781;BME280;20097;50.832;19.100;2023-02-03T13:37:49;97333.41;;;1.13;100.00
33781;BME280;20097;50.832;19.100;2023-02-03T13:43:05;97324.19;;;1.11;100.00
33781;BME280;20097;50.832;19.100;2023-02-03T13:48:17;97311.63;;;1.08;100.00
33781;BME280;20097;50.832;19.100;2023-02-03T13:53:25;97294.75;;;1.05;100.00
33781;BME280;20097;50.832;19.100;2023-02-03T13:58:35;97286.34;;;1.03;100.00
33781;BME280;20097;50.832;19.100;2023-02-03T14:03:44;97269.97;;;1.04;100.00
33781;BME280;20097;50.832;19.100;2023-02-03T14:08:49;97263.78;;;1.07;100.00
33781;BME280;20097;50.832;19.100;2023-02-03T14:19:52;97278.50;;;1.05;100.00
33781;BME280;20097;50.832;19.100;2023-02-03T14:25:03;97267.03;;;1.09;100.00
33781;BME280;20097;50.832;19.100;2023-02-03T14:30:13;97259.16;;;1.10;100.00
33781;BME280;20097;50.832;19.100;2023-02-03T14:35:21;97259.81;;;1.12;100.00
33781;BME280;20097;50.832;19.100;2023-02-03T14:40:33;97255.50;;;1.13;100.00
33781;BME280;20097;50.832;19.100;2023-02-03T14:46:12;97242.91;;;1.19;100.00
33781;BME280;20097;50.832;19.100;2023-02-03T14:51:34;97238.69;;;1.28;100.00
33781;BME280;20097;50.832;19.100;2023-02-03T14:56:46;97226.66;;;1.28;100.00
33781;BME280;20097;50.832;19.100;2023-02-03T15:02:17;97221.75;;;1.25;100.00
33781;BME280;20097;50.832;19.100;2023-02-03T15:07:38;97219.28;;;1.33;100.00
33781;BME280;20097;50.832;19.100;2023-02-03T15:12:49;97218.88;;;1.38;100.00
33781;BME280;20097;50.832;19.100;2023-02-03T15:17:58;97226.53;;;1.48;100.00
33781;BME280;20097;50.832;19.100;2023-02-03T15:23:18;97231.78;;;1.56;100.00
33781;BME280;20097;50.832;19.100;2023-02-03T15:28:25;97222.34;;;1.74;100.00
33781;BME280;20097;50.832;19.100;2023-02-03T15:33:32;97224.16;;;1.81;100.00
33781;BME280;20097;50.832;19.100;2023-02-03T15:38:40;97237.41;;;1.86;100.00
33781;BME280;20097;50.832;19.100;2023-02-03T15:43:51;97258.16;;;2.02;100.00
33781;BME280;20097;50.832;19.100;2023-02-03T15:49:05;97252.00;;;2.13;100.00
33781;BME280;20097;50.832;19.100;2023-02-03T15:54:15;97267.06;;;2.25;100.00
33781;BME280;20097;50.832;19.100;2023-02-03T15:59:24;97257.28;;;2.29;100.00
33781;BME280;20097;50.832;19.100;2023-02-03T16:04:34;97273.41;;;2.31;100.00
33781;BME280;20097;50.832;19.100;2023-02-03T16:09:40;97282.44;;;2.35;100.00
33781;BME280;20097;50.832;19.100;2023-02-03T16:14:45;97281.34;;;2.37;100.00
33781;BME280;20097;50.832;19.100;2023-02-03T16:19:51;97285.53;;;2.38;100.00
33781;BME280;20097;50.832;19.100;2023-02-03T16:25:19;97299.84;;;2.41;100.00
33781;BME280;20097;50.832;19.100;2023-02-03T16:30:24;97315.38;;;2.49;100.00
33781;BME280;20097;50.832;19.100;2023-02-03T16:35:48;97310.59;;;2.54;100.00
33781;BME280;20097;50.832;19.100;2023-02-03T16:41:15;97314.81;;;2.55;100.00
33781;BME280;20097;50.832;19.100;2023-02-03T16:46:37;97319.28;;;2.53;100.00
33781;BME280;20097;50.832;19.100;2023-02-03T16:52:02;97320.47;;;2.58;100.00
33781;BME280;20097;50.832;19.100;2023-02-03T16:57:08;97334.16;;;2.59;100.00
33781;BME280;20097;50.832;19.100;2023-02-03T17:02:12;97338.06;;;2.63;100.00
33781;BME280;20097;50.832;19.100;2023-02-03T17:07:20;97339.16;;;2.60;100.00
33781;BME280;20097;50.832;19.100;2023-02-03T17:12:25;97342.84;;;2.58;100.00
33781;BME280;20097;50.832;19.100;2023-02-03T17:17:32;97347.63;;;2.53;100.00
33781;BME280;20097;50.832;19.100;2023-02-03T17:22:38;97350.94;;;2.45;100.00
33781;BME280;20097;50.832;19.100;2023-02-03T17:27:42;97356.50;;;2.41;100.00
33781;BME280;20097;50.832;19.100;2023-02-03T17:32:47;97365.56;;;2.45;100.00
33781;BME280;20097;50.832;19.100;2023-02-03T17:37:53;97360.28;;;2.46;100.00
33781;BME280;20097;50.832;19.100;2023-02-03T17:42:57;97355.94;;;2.47;100.00
33781;BME280;20097;50.832;19.100;2023-02-03T17:48:19;97363.28;;;2.42;100.00
33781;BME280;20097;50.832;19.100;2023-02-03T17:53:43;97372.31;;;2.46;100.00
33781;BME280;20097;50.832;19.100;2023-02-03T17:58:53;97368.44;;;2.42;100.00
33781;BME280;20097;50.832;19.100;2023-02-03T18:04:01;97380.28;;;2.35;100.00
33781;BME280;20097;50.832;19.100;2023-02-03T18:09:09;97392.75;;;2.30;100.00
33781;BME280;20097;50.832;19.100;2023-02-03T18:14:16;97394.28;;;2.23;100.00
33781;BME280;20097;50.832;19.100;2023-02-03T18:19:20;97394.94;;;2.25;100.00
33781;BME280;20097;50.832;19.100;2023-02-03T18:24:26;97394.50;;;2.29;100.00
33781;BME280;20097;50.832;19.100;2023-02-03T18:29:32;97399.41;;;2.32;100.00
33781;BME280;20097;50.832;19.100;2023-02-03T18:34:36;97395.94;;;2.41;100.00
33781;BME280;20097;50.832;19.100;2023-02-03T18:39:42;97389.72;;;2.44;100.00
33781;BME280;20097;50.832;19.100;2023-02-03T18:44:46;97406.19;;;2.51;100.00
33781;BME280;20097;50.832;19.100;2023-02-03T18:49:50;97405.09;;;2.53;100.00
33781;BME280;20097;50.832;19.100;2023-02-03T18:54:56;97410.47;;;2.60;100.00
33781;BME280;20097;50.832;19.100;2023-02-03T19:00:01;97418.50;;;2.57;100.00
33781;BME280;20097;50.832;19.100;2023-02-03T19:05:06;97419.75;;;2.53;100.00
33781;BME280;20097;50.832;19.100;2023-02-03T19:10:13;97426.94;;;2.49;100.00
33781;BME280;20097;50.832;19.100;2023-02-03T19:15:17;97432.53;;;2.45;100.00
33781;BME280;20097;50.832;19.100;2023-02-03T19:20:22;97439.34;;;2.36;100.00
33781;BME280;20097;50.832;19.100;2023-02-03T19:25:28;97437.78;;;2.26;100.00
33781;BME280;20097;50.832;19.100;2023-02-03T19:30:33;97435.47;;;2.23;100.00
33781;BME280;20097;50.832;19.100;2023-02-03T19:35:38;97453.16;;;2.08;100.00
33781;BME280;20097;50.832;19.100;2023-02-03T19:40:44;97441.97;;;2.00;100.00
33781;BME280;20097;50.832;19.100;2023-02-03T19:45:50;97446.53;;;2.06;100.00
33781;BME280;20097;50.832;19.100;2023-02-03T19:50:54;97447.22;;;2.08;100.00
33781;BME280;20097;50.832;19.100;2023-02-03T19:55:59;97451.25;;;2.10;100.00
33781;BME280;20097;50.832;19.100;2023-02-03T20:01:04;97455.72;;;2.18;100.00
33781;BME280;20097;50.832;19.100;2023-02-03T20:06:08;97455.13;;;2.24;100.00
33781;BME280;20097;50.832;19.100;2023-02-03T20:11:14;97466.59;;;2.29;100.00
33781;BME280;20097;50.832;19.100;2023-02-03T20:16:19;97461.44;;;2.29;100.00
33781;BME280;20097;50.832;19.100;2023-02-03T20:21:23;97454.94;;;2.35;100.00
33781;BME280;20097;50.832;19.100;2023-02-03T20:26:29;97459.13;;;2.36;100.00
33781;BME280;20097;50.832;19.100;2023-02-03T20:31:33;97451.41;;;2.36;100.00
33781;BME280;20097;50.832;19.100;2023-02-03T20:36:38;97457.91;;;2.40;100.00
33781;BME280;20097;50.832;19.100;2023-02-03T20:41:44;97451.28;;;2.37;100.00
33781;BME280;20097;50.832;19.100;2023-02-03T20:46:48;97442.97;;;2.43;100.00
33781;BME280;20097;50.832;19.100;2023-02-03T20:51:55;97441.47;;;2.41;100.00
33781;BME280;20097;50.832;19.100;2023-02-03T20:57:01;97444.06;;;2.41;100.00
33781;BME280;20097;50.832;19.100;2023-02-03T21:02:23;97448.28;;;2.42;100.00
33781;BME280;20097;50.832;19.100;2023-02-03T21:07:35;97460.03;;;2.44;100.00
33781;BME280;20097;50.832;19.100;2023-02-03T21:12:41;97453.41;;;2.42;100.00
33781;BME280;20097;50.832;19.100;2023-02-03T21:17:46;97447.00;;;2.46;100.00
33781;BME280;20097;50.832;19.100;2023-02-03T21:22:50;97459.50;;;2.41;100.00
33781;BME280;20097;50.832;19.100;2023-02-03T21:27:57;97446.78;;;2.39;100.00
33781;BME280;20097;50.832;19.100;2023-02-03T21:33:26;97447.88;;;2.37;100.00
33781;BME280;20097;50.832;19.100;2023-02-03T21:38:32;97444.34;;;2.38;100.00
33781;BME280;20097;50.832;19.100;2023-02-03T21:43:37;97437.59;;;2.37;100.00
33781;BME280;20097;50.832;19.100;2023-02-03T21:48:45;97447.97;;;2.45;100.00
33781;BME280;20097;50.832;19.100;2023-02-03T21:53:55;97451.59;;;2.52;100.00
33781;BME280;20097;50.832;19.100;2023-02-03T21:59:03;97446.03;;;2.56;100.00
33781;BME280;20097;50.832;19.100;2023-02-03T22:04:07;97446.84;;;2.57;100.00
33781;BME280;20097;50.832;19.100;2023-02-03T22:09:13;97453.50;;;2.50;100.00
33781;BME280;20097;50.832;19.100;2023-02-03T22:14:20;97450.03;;;2.41;100.00
33781;BME280;20097;50.832;19.100;2023-02-03T22:19:24;97440.44;;;2.34;100.00
33781;BME280;20097;50.832;19.100;2023-02-03T22:24:28;97432.72;;;2.34;100.00
33781;BME280;20097;50.832;19.100;2023-02-03T22:29:34;97437.88;;;2.34;100.00
33781;BME280;20097;50.832;19.100;2023-02-03T22:34:39;97437.59;;;2.37;100.00
33781;BME280;20097;50.832;19.100;2023-02-03T22:39:43;97437.28;;;2.40;100.00
33781;BME280;20097;50.832;19.100;2023-02-03T22:44:49;97437.00;;;2.43;100.00
33781;BME280;20097;50.832;19.100;2023-02-03T22:49:54;97423.03;;;2.45;100.00
33781;BME280;20097;50.832;19.100;2023-02-03T22:54:58;97422.31;;;2.53;100.00
33781;BME280;20097;50.832;19.100;2023-02-03T23:00:06;97414.97;;;2.58;100.00
33781;BME280;20097;50.832;19.100;2023-02-03T23:05:13;97408.06;;;2.58;100.00
33781;BME280;20097;50.832;19.100;2023-02-03T23:10:21;97409.22;;;2.64;100.00
33781;BME280;20097;50.832;19.100;2023-02-03T23:15:28;97394.59;;;2.64;100.00
33781;BME280;20097;50.832;19.100;2023-02-03T23:20:33;97395.75;;;2.70;100.00
33781;BME280;20097;50.832;19.100;2023-02-03T23:25:37;97387.59;;;2.74;100.00
33781;BME280;20097;50.832;19.100;2023-02-03T23:30:43;97385.53;;;2.78;100.00
33781;BME280;20097;50.832;19.100;2023-02-03T23:35:47;97381.03;;;2.80;100.00
33781;BME280;20097;50.832;19.100;2023-02-03T23:40:52;97360.41;;;2.80;100.00
33781;BME280;20097;50.832;19.100;2023-02-03T23:45:59;97369.78;;;2.81;100.00
33781;BME280;20097;50.832;19.100;2023-02-03T23:51:03;97362.34;;;2.78;100.00
33781;BME280;20097;50.832;19.100;2023-02-03T23:56:08;97355.88;;;2.74;100.00
